Time;durP1;ratioP1;P1;durP2;ratioP2;P2;SDS_P1;SDS_P2;PMS_P1;PMS_P2;Temp;Humidity;BMP_temperature;BMP_pressure;BME280_temperature;BME280_humidity;BME280_pressure;Samples;Min_cycle;Max_cycle;Signal;HPM_P1;HPM_P2
2023/12/05 06:48:23;;;;;;;0.20;0.20;;;;;;;9.53;100.00;74797.66;6230374;23;20056;-84
2023/12/05 06:50:50;;;;;;;0.20;0.20;;;;;;;9.71;100.00;74825.28;6243886;23;20060;-83
2023/12/05 06:54:06;;;;;;;0.20;0.20;;;;;;;9.98;100.00;74853.59;6217790;23;19997;-85
2023/12/05 06:57:26;;;;;;;0.20;0.20;;;;;;;9.89;100.00;74845.59;6243847;23;20008;-85
2023/12/05 07:00:29;;;;;;;0.20;0.20;;;;;;;9.52;100.00;74799.25;6227962;23;20008;-84
2023/12/05 07:03:44;;;;;;;0.20;0.20;;;;;;;9.98;100.00;74862.47;6192934;23;20039;-84
2023/12/05 07:06:26;;;;;;;0.20;0.20;;;;;;;9.55;100.00;74806.19;6182023;23;20025;-85
2023/12/05 07:15:36;;;;;;;0.20;0.20;;;;;;;9.42;100.00;74785.72;6119166;23;20049;-85
2023/12/05 07:18:14;;;;;;;0.20;0.20;;;;;;;9.30;100.00;74771.41;6141631;23;19994;-86
2023/12/05 07:21:17;;;;;;;0.20;0.20;;;;;;;10.02;100.00;74855.00;6079421;23;20025;-86
2023/12/05 07:24:30;;;;;;;0.20;0.20;;;;;;;9.71;100.00;74821.94;6122557;23;20026;-86
2023/12/05 07:27:52;;;;;;;0.20;0.20;;;;;;;9.97;100.00;74855.16;6112275;23;20002;-86
2023/12/05 07:31:07;;;;;;;0.28;0.28;;;;;;;10.03;100.00;74856.19;6074480;23;20073;-87
2023/12/05 07:33:48;;;;;;;0.20;0.20;;;;;;;9.65;100.00;74812.59;6123152;23;20014;-86
2023/12/05 14:19:10;;;;;;;0.20;0.20;;;;;;;9.05;100.00;74741.56;6227852;22;20037;-94
2023/12/05 14:22:43;;;;;;;0.20;0.20;;;;;;;8.87;100.00;74726.81;6209758;23;20072;-93
2023/12/05 14:25:44;;;;;;;0.20;0.20;;;;;;;9.12;100.00;74747.78;6208064;23;20065;-93
2023/12/05 14:28:41;;;;;;;;;;;;;;;9.42;100.00;74790.66;6200294;23;20017;-93
2023/12/05 14:32:14;;;;;;;0.20;0.20;;;;;;;9.06;100.00;74745.53;6150388;23;20447;-94
2023/12/05 14:38:16;;;;;;;0.30;0.30;;;;;;;9.23;100.00;74763.06;6150794;23;20012;-94
2023/12/05 14:41:03;;;;;;;0.20;0.20;;;;;;;9.26;100.00;74771.56;6083812;23;20010;-94
2023/12/05 14:47:14;;;;;;;0.20;0.20;;;;;;;9.27;100.00;74773.38;6121712;23;20070;-93
2023/12/05 14:57:48;;;;;;;0.20;0.20;;;;;;;9.07;100.00;74750.09;6246160;22;20055;-93
2023/12/05 15:17:03;;;;;;;0.20;0.20;;;;;;;8.88;100.00;74728.00;6237854;22;20016;-93
2023/12/05 15:35:56;;;;;;;0.20;0.20;;;;;;;9.16;100.00;74754.69;6255751;22;20006;-93
2023/12/05 15:41:55;;;;;;;0.30;0.30;;;;;;;9.36;100.00;74784.09;6249808;23;20073;-92
2023/12/05 15:45:13;;;;;;;0.20;0.20;;;;;;;8.95;100.00;74726.88;6262112;23;20015;-92
2023/12/05 15:48:17;;;;;;;0.20;0.20;;;;;;;9.10;100.00;74755.81;6259365;23;20026;-92
2023/12/05 15:51:15;;;;;;;0.20;0.20;;;;;;;9.05;100.00;74744.94;6269688;23;20022;-91
2023/12/05 15:54:06;;;;;;;0.20;0.20;;;;;;;8.99;100.00;74737.16;6263423;23;20004;-92
2023/12/05 15:56:38;;;;;;;0.20;0.20;;;;;;;8.90;100.00;74729.81;6238558;23;20008;-91
2023/12/05 15:59:38;;;;;;;0.20;0.20;;;;;;;8.84;100.00;74722.63;6247875;23;20035;-91
2023/12/05 16:02:12;;;;;;;;;;;;;;;9.42;100.00;74788.50;6265731;23;19988;-94
2023/12/05 16:05:28;;;;;;;0.20;0.20;;;;;;;9.37;100.00;74785.28;6271525;22;19916;-95
2023/12/05 16:08:13;;;;;;;0.20;0.20;;;;;;;9.13;100.00;74751.13;6248918;23;20002;-92
2023/12/05 16:10:52;;;;;;;0.20;0.20;;;;;;;9.53;100.00;74794.91;6256773;23;20043;-93
2023/12/05 16:13:29;;;;;;;0.20;0.20;;;;;;;9.12;100.00;74750.53;6261607;23;19992;-92
2023/12/05 16:16:20;;;;;;;0.20;0.20;;;;;;;9.07;100.00;74746.72;6269368;23;20054;-92
2023/12/05 16:19:14;;;;;;;0.20;0.20;;;;;;;9.34;100.00;74778.34;6272686;23;20005;-92
2023/12/05 16:22:12;;;;;;;0.20;0.20;;;;;;;9.15;100.00;74756.25;6227927;23;20005;-93
2023/12/05 16:24:47;;;;;;;0.30;0.30;;;;;;;8.95;100.00;74735.16;6240264;23;20028;-93
2023/12/05 16:27:53;;;;;;;0.30;0.30;;;;;;;9.59;100.00;74807.63;6226250;23;20048;-93
2023/12/05 16:30:50;;;;;;;0.30;0.30;;;;;;;8.98;100.00;74738.75;6215332;23;20015;-93
2023/12/05 16:34:04;;;;;;;0.20;0.20;;;;;;;9.64;100.00;74813.56;6243217;23;20020;-93
2023/12/05 16:40:36;;;;;;;0.20;0.20;;;;;;;9.10;100.00;74753.06;6203794;23;20081;-93
2023/12/05 16:43:45;;;;;;;0.20;0.20;;;;;;;9.27;100.00;74767.84;6219325;23;20019;-93
2023/12/05 16:46:12;;;;;;;0.20;0.20;;;;;;;9.12;100.00;74753.28;6216522;23;20005;-95
2023/12/05 16:48:55;;;;;;;0.20;0.20;;;;;;;9.16;100.00;74757.47;6241154;23;20056;-93
2023/12/05 16:51:23;;;;;;;0.20;0.20;;;;;;;8.91;100.00;74731.59;6217063;23;20011;-93
2023/12/05 16:54:55;;;;;;;0.20;0.20;;;;;;;9.49;100.00;74792.91;6231945;23;20000;-93
2023/12/05 16:57:40;;;;;;;0.20;0.20;;;;;;;9.50;100.00;74796.88;6215903;23;20028;-93
2023/12/05 17:03:31;;;;;;;0.20;0.20;;;;;;;9.17;100.00;74762.03;6240836;23;20003;-92
2023/12/05 17:06:40;;;;;;;0.20;0.20;;;;;;;9.59;100.00;74804.84;6136520;23;20004;-93
2023/12/05 17:09:27;;;;;;;0.20;0.20;;;;;;;9.19;100.00;74761.63;6228752;23;20016;-93
2023/12/05 17:19:11;;;;;;;0.20;0.20;;;;;;;9.00;100.00;74741.13;6178955;23;20048;-93
2023/12/05 17:21:52;;;;;;;0.20;0.20;;;;;;;9.36;100.00;74781.34;6178565;23;20480;-92
2023/12/05 17:24:18;;;;;;;0.20;0.20;;;;;;;9.22;100.00;74761.88;6131334;23;20052;-93
2023/12/05 17:27:05;;;;;;;0.20;0.20;;;;;;;9.38;100.00;74785.91;6170798;23;20001;-92
2023/12/05 17:29:43;;;;;;;0.20;0.20;;;;;;;9.22;100.00;74764.63;6170715;23;20017;-93
2023/12/05 17:50:16;;;;;;;0.20;0.20;;;;;;;9.71;100.00;74824.69;6212048;23;20016;-93
2023/12/05 17:53:15;;;;;;;0.20;0.20;;;;;;;9.70;100.00;74826.28;6186404;23;20016;-93
2023/12/05 18:27:17;;;;;;;0.20;0.20;;;;;;;9.78;100.00;74827.53;6176085;22;20799;-91
2023/12/05 18:58:16;;;;;;;0.20;0.20;;;;;;;9.79;100.00;74828.72;6272274;22;20058;-91
2023/12/05 19:01:00;;;;;;;0.20;0.20;;;;;;;9.23;100.00;74763.06;6271571;22;20020;-91
2023/12/05 19:04:00;;;;;;;0.20;0.20;;;;;;;9.31;100.00;74772.59;6181467;23;20002;-91
2023/12/05 19:07:19;;;;;;;0.30;0.30;;;;;;;9.16;100.00;74754.69;6156598;23;19994;-91
2023/12/05 19:10:17;;;;;;;0.20;0.20;;;;;;;9.37;100.00;74779.16;6181630;23;20010;-92
2023/12/05 19:13:41;;;;;;;0.20;0.20;;;;;;;9.63;100.00;74812.38;6181421;23;20009;-92
2023/12/05 19:16:44;;;;;;;0.20;0.20;;;;;;;9.69;100.00;74822.28;6156215;23;20013;-92
2023/12/05 19:19:50;;;;;;;0.30;0.30;;;;;;;9.69;100.00;74817.38;6156324;23;20042;-92
2023/12/05 19:22:58;;;;;;;0.30;0.30;;;;;;;9.07;100.00;74744.56;6179561;23;20005;-91
2023/12/05 19:25:50;;;;;;;0.20;0.20;;;;;;;9.32;100.00;74775.97;6155532;23;19990;-95
2023/12/05 19:28:37;;;;;;;;;;;;;;;9.59;100.00;74804.84;6174202;23;20001;-94
2023/12/05 19:31:20;;;;;;;0.20;0.20;;;;;;;9.10;100.00;74747.53;6179248;23;19916;-93
2023/12/05 19:54:05;;;;;;;0.20;0.20;;;;;;;9.31;100.00;74778.13;6177290;23;21083;31
2023/12/05 20:11:42;;;;;;;0.20;0.20;;;;;;;8.55;100.00;74691.38;6239962;22;20024;-92
2023/12/05 20:17:46;;;;;;;0.20;0.20;;;;;;;8.47;100.00;74676.31;6213002;23;20023;-94
2023/12/05 20:21:02;;;;;;;0.30;0.30;;;;;;;9.03;100.00;74744.72;6206372;23;20005;-93
2023/12/05 20:23:49;;;;;;;0.20;0.20;;;;;;;8.69;100.00;74699.22;6213685;23;19993;-93
2023/12/05 20:29:55;;;;;;;0.20;0.20;;;;;;;9.05;100.00;74747.09;6212406;23;20047;-93
2023/12/05 20:32:53;;;;;;;0.20;0.20;;;;;;;8.73;100.00;74706.75;6202890;23;20036;-94
2023/12/05 20:36:05;;;;;;;0.30;0.30;;;;;;;9.04;100.00;74740.97;6212027;23;20001;-94
2023/12/05 20:38:38;;;;;;;0.20;0.20;;;;;;;8.87;100.00;74726.22;6211789;23;20001;-93
2023/12/05 20:42:03;;;;;;;0.30;0.30;;;;;;;9.03;100.00;74739.19;6186170;23;19993;-92
2023/12/05 20:48:09;;;;;;;0.30;0.30;;;;;;;8.68;100.00;74709.03;6121989;23;20235;-92
2023/12/05 20:51:37;;;;;;;;;;;;;;;;;;;;;
2023/12/05 20:54:05;;;;;;;0.20;0.20;;;;;;;8.96;100.00;74733.59;6035090;23;20024;-92
2023/12/05 20:56:40;;;;;;;0.20;0.20;;;;;;;8.76;100.00;74710.34;6035398;23;20018;-92
2023/12/05 20:59:22;;;;;;;0.20;0.20;;;;;;;8.49;100.00;74681.47;6019839;23;20011;-92
2023/12/05 21:02:21;;;;;;;0.30;0.30;;;;;;;8.28;100.00;74652.06;6035036;23;20594;-92
2023/12/05 21:09:22;;;;;;;0.20;0.20;;;;;;;8.81;100.00;74713.53;6012547;23;20031;-92
2023/12/05 21:18:51;;;;;;;0.20;0.20;;;;;;;8.69;100.00;74701.97;6065289;23;20017;-92
2023/12/05 21:22:05;;;;;;;;;;;;;;;8.64;100.00;74696.63;6058431;23;20084;-91
2023/12/05 21:25:46;;;;;;;0.20;0.20;;;;;;;8.77;100.00;74709.34;6065816;23;19940;-92
2023/12/05 21:28:47;;;;;;;0.20;0.20;;;;;;;8.77;100.00;74708.75;6042368;23;20019;-91
2023/12/05 21:31:25;;;;;;;0.20;0.20;;;;;;;8.58;100.00;74689.47;6105804;23;20021;-92
2023/12/05 21:36:57;;;;;;;0.20;0.20;;;;;;;8.16;100.00;74637.78;6225657;22;20051;-92
2023/12/05 21:39:48;;;;;;;0.20;0.20;;;;;;;8.77;100.00;74714.88;6215052;23;20017;-92
2023/12/05 21:46:20;;;;;;;0.30;0.30;;;;;;;8.19;100.00;74646.25;6243524;23;20048;-93
2023/12/05 21:48:55;;;;;;;0.20;0.20;;;;;;;8.79;100.00;74711.75;6214499;23;20008;-92
2023/12/05 21:51:40;;;;;;;;;;;;;;;8.80;100.00;74721.22;6164637;23;19984;-92
2023/12/05 21:54:26;;;;;;;0.28;0.28;;;;;;;8.14;100.00;74638.13;6211030;23;19920;-92
2023/12/05 21:57:23;;;;;;;0.20;0.20;;;;;;;8.63;100.00;74698.19;6193362;23;20008;-90
2023/12/05 22:00:03;;;;;;;0.28;0.28;;;;;;;8.29;100.00;74658.19;6242860;23;19992;-92
2023/12/05 22:02:34;;;;;;;0.30;0.30;;;;;;;8.18;100.00;74640.16;6214938;23;20004;-92
2023/12/05 22:05:48;;;;;;;0.30;0.30;;;;;;;8.19;100.00;74646.84;6195312;23;19989;-93
2023/12/05 22:12:14;;;;;;;0.30;0.30;;;;;;;8.33;100.00;74660.78;6243763;23;20040;-92
2023/12/05 22:15:18;;;;;;;0.30;0.30;;;;;;;8.17;100.00;74644.47;6191667;23;20020;-92
2023/12/05 22:41:58;;;;;;;0.20;0.20;;;;;;;8.03;100.00;74627.75;6190918;23;20035;-90
2023/12/05 22:45:06;;;;;;;0.20;0.20;;;;;;;8.66;100.00;74696.22;6162031;23;20024;-91
2023/12/05 22:51:05;;;;;;;0.20;0.20;;;;;;;8.53;100.00;74683.50;6242262;23;20043;-92
2023/12/05 22:54:25;;;;;;;0.20;0.20;;;;;;;8.60;100.00;74694.59;6216847;23;19992;-92
2023/12/05 22:57:39;;;;;;;0.20;0.20;;;;;;;8.60;100.00;74694.59;6242315;23;20035;-92
2023/12/05 23:01:07;;;;;;;0.20;0.20;;;;;;;8.08;100.00;74633.72;6241400;23;20013;-92
2023/12/05 23:04:30;;;;;;;0.20;0.20;;;;;;;8.52;100.00;74685.03;6240781;23;20005;-92
2023/12/05 23:22:37;;;;;;;0.30;0.30;;;;;;;8.37;100.00;74665.00;6243842;23;20007;-92
2023/12/05 23:29:14;;;;;;;0.30;0.30;;;;;;;8.03;100.00;74622.84;6242259;23;20471;-92
2023/12/05 23:44:32;;;;;;;0.20;0.20;;;;;;;8.38;100.00;74663.44;6259174;22;20050;-91
2023/12/05 23:47:36;;;;;;;0.30;0.30;;;;;;;8.86;100.00;74725.63;6245446;23;20023;-92
2023/12/05 23:50:43;;;;;;;0.30;0.30;;;;;;;8.78;100.00;74716.06;6272741;22;20072;-92
2023/12/05 23:53:57;;;;;;;0.20;0.20;;;;;;;8.80;100.00;74712.94;6237478;23;20022;-92
2023/12/05 23:56:41;;;;;;;0.20;0.20;;;;;;;8.55;100.00;74683.13;6268200;23;20076;-92
